Time;durP1;ratioP1;P1;durP2;ratioP2;P2;SDS_P1;SDS_P2;PMS_P1;PMS_P2;Temp;Humidity;BMP_temperature;BMP_pressure;BME280_temperature;BME280_humidity;BME280_pressure;Samples;Min_cycle;Max_cycle;Signal;HPM_P1;HPM_P2
2021/11/15 00:01:14;;;;;;;12.60;7.40;;;22.00;52.70;;;;;;5237871;28;20512;-54
2021/11/15 00:03:47;;;;;;;11.55;6.82;;;22.00;52.60;;;;;;5239803;28;20424;-51
2021/11/15 00:06:20;;;;;;;12.73;7.32;;;22.00;52.50;;;;;;5240858;28;20566;-58
2021/11/15 00:08:52;;;;;;;13.48;7.75;;;22.00;52.50;;;;;;5239936;28;20051;-58
2021/11/15 00:11:26;;;;;;;17.65;7.40;;;22.00;52.50;;;;;;5199676;28;20713;-51
2021/11/15 00:13:59;;;;;;;10.95;7.22;;;21.90;52.50;;;;;;5245032;28;20080;-55
2021/11/15 00:16:32;;;;;;;9.80;7.00;;;21.90;52.40;;;;;;5246495;28;20071;-51
2021/11/15 00:19:05;;;;;;;12.23;7.25;;;21.90;52.40;;;;;;5243071;28;20579;-52
2021/11/15 00:21:55;;;;;;;8.98;6.85;;;22.00;52.50;;;;;;5242882;28;20167;-51
2021/11/15 00:24:28;;;;;;;11.90;7.07;;;22.00;52.50;;;;;;5239947;28;20404;-53
2021/11/15 00:27:01;;;;;;;11.55;7.60;;;21.90;52.40;;;;;;5212927;28;20055;-52
2021/11/15 00:29:33;;;;;;;13.23;8.07;;;21.90;52.40;;;;;;5250382;28;20032;-53
2021/11/15 00:32:06;;;;;;;13.57;6.68;;;21.90;52.40;;;;;;5246228;28;20047;-57
2021/11/15 00:34:39;;;;;;;11.25;7.00;;;21.90;52.30;;;;;;5225299;28;20044;-51
2021/11/15 00:37:11;;;;;;;9.95;7.20;;;21.90;52.30;;;;;;5243717;28;20055;-59
2021/11/15 00:39:43;;;;;;;11.23;6.90;;;21.90;52.30;;;;;;5231665;28;20036;-55
2021/11/15 00:42:17;;;;;;;12.07;6.82;;;21.90;52.20;;;;;;5222519;28;20488;-51
2021/11/15 00:44:49;;;;;;;12.02;6.45;;;21.90;52.30;;;;;;5237097;28;20056;-52
2021/11/15 00:47:22;;;;;;;9.65;6.47;;;21.90;52.20;;;;;;5240708;28;20040;-57
2021/11/15 00:49:54;;;;;;;13.50;7.15;;;21.90;52.20;;;;;;5251954;28;20044;-59
2021/11/15 00:52:26;;;;;;;11.43;6.35;;;21.90;52.90;;;;;;5235175;28;20036;-57
2021/11/15 00:54:59;;;;;;;11.07;6.82;;;21.90;52.20;;;;;;5240890;28;20055;-54
2021/11/15 00:57:31;;;;;;;8.80;6.30;;;21.90;52.10;;;;;;5242872;28;20445;-55
2021/11/15 01:00:08;;;;;;;10.25;6.93;;;21.90;52.10;;;;;;5250484;28;20040;-60
2021/11/15 01:02:40;;;;;;;9.70;6.82;;;21.90;52.20;;;;;;5236230;28;20493;-53
2021/11/15 01:05:14;;;;;;;11.15;7.13;;;21.90;52.10;;;;;;5240978;28;20066;-50
2021/11/15 01:07:46;;;;;;;9.52;6.75;;;21.90;52.10;;;;;;5240505;28;20066;-55
2021/11/15 01:10:20;;;;;;;10.88;6.15;;;21.90;52.10;;;;;;5242498;28;20043;-55
2021/11/15 01:12:53;;;;;;;13.32;6.97;;;21.90;52.20;;;;;;5245758;28;20477;-49
2021/11/15 01:15:27;;;;;;;10.20;6.73;;;21.80;52.20;;;;;;5247957;28;20416;-52
2021/11/15 01:18:04;;;;;;;9.20;6.70;;;21.80;52.10;;;;;;5237673;28;20039;-59
2021/11/15 01:20:37;;;;;;;11.85;6.45;;;21.90;52.20;;;;;;5236493;28;20075;-53
2021/11/15 01:23:10;;;;;;;8.23;6.35;;;21.90;52.20;;;;;;5232075;28;20051;-57
2021/11/15 01:25:43;;;;;;;8.73;6.10;;;21.80;52.10;;;;;;5235836;28;20052;-53
2021/11/15 01:28:15;;;;;;;;;;;21.80;52.10;;;;;;5225956;28;20055;-54
2021/11/15 01:30:48;;;;;;;12.05;7.05;;;21.80;52.20;;;;;;5229027;28;19923;-50
2021/11/15 01:33:20;;;;;;;10.27;6.25;;;21.80;52.30;;;;;;5227982;28;20056;-58
2021/11/15 01:35:53;;;;;;;9.35;6.38;;;21.80;52.20;;;;;;5221624;28;20047;-59
2021/11/15 01:38:26;;;;;;;8.90;5.73;;;21.80;52.20;;;;;;5235282;28;20481;-54
2021/11/15 01:40:58;;;;;;;10.07;6.28;;;21.80;52.20;;;;;;5234510;28;20040;-51
2021/11/15 01:43:31;;;;;;;8.70;5.70;;;21.80;52.20;;;;;;5237988;28;20048;-49
2021/11/15 01:46:04;;;;;;;8.20;6.18;;;21.80;52.20;;;;;;5237347;28;20546;-52
2021/11/15 01:48:36;;;;;;;10.73;5.95;;;21.80;52.20;;;;;;5240287;28;20511;-51
2021/11/15 01:51:10;;;;;;;9.00;6.10;;;21.80;52.20;;;;;;5237715;28;25336;-49
2021/11/15 01:54:00;;;;;;;7.78;5.60;;;21.80;52.30;;;;;;5225204;28;20569;-50
2021/11/15 01:56:33;;;;;;;9.15;5.43;;;21.80;52.20;;;;;;5238487;28;20040;-52
2021/11/15 01:59:06;;;;;;;7.57;5.05;;;21.80;52.20;;;;;;5220388;28;20256;-54
2021/11/15 02:01:39;;;;;;;8.20;6.28;;;21.80;52.20;;;;;;5234552;28;20047;-53
2021/11/15 02:04:12;;;;;;;7.70;5.57;;;21.80;52.20;;;;;;5200564;28;20048;-51
2021/11/15 02:06:45;;;;;;;9.00;5.95;;;21.80;52.20;;;;;;5236824;28;20044;-58
2021/11/15 02:09:36;;;;;;;10.63;5.47;;;21.80;52.20;;;;;;5237306;28;20519;-52
2021/11/15 02:12:09;;;;;;;9.88;5.50;;;21.80;52.20;;;;;;5237865;28;20291;-53
2021/11/15 02:14:41;;;;;;;7.10;4.77;;;21.80;52.10;;;;;;5237408;28;20086;-49
2021/11/15 02:17:15;;;;;;;8.23;5.40;;;21.80;52.20;;;;;;5233708;28;20075;-53
2021/11/15 02:19:47;;;;;;;10.05;6.05;;;21.80;52.10;;;;;;5229016;28;20051;-51
2021/11/15 02:22:21;;;;;;;7.80;5.47;;;21.80;52.10;;;;;;5227664;28;20317;-50
2021/11/15 02:24:53;;;;;;;8.02;5.22;;;21.80;52.10;;;;;;5233658;28;20665;-52
2021/11/15 02:27:27;;;;;;;8.70;5.22;;;21.80;52.10;;;;;;5198533;28;20052;-50
2021/11/15 02:30:00;;;;;;;7.78;5.32;;;21.80;52.10;;;;;;5235553;28;20062;-55
2021/11/15 02:32:32;;;;;;;7.20;5.22;;;21.80;52.10;;;;;;5234865;28;20051;-54
2021/11/15 02:35:05;;;;;;;7.70;4.88;;;21.80;52.10;;;;;;5209444;28;20048;-51
2021/11/15 02:37:38;;;;;;;6.85;4.93;;;21.80;52.10;;;;;;5232909;28;20047;-54
2021/11/15 02:40:13;;;;;;;7.13;5.07;;;21.80;52.10;;;;;;5219667;28;20730;-50
2021/11/15 02:42:47;;;;;;;7.30;5.65;;;21.80;52.10;;;;;;5233072;28;20058;-54
2021/11/15 02:45:22;;;;;;;6.63;4.85;;;21.80;52.00;;;;;;5216139;28;20052;-52
2021/11/15 02:47:55;;;;;;;6.75;5.00;;;21.70;52.00;;;;;;5232624;28;20815;-48
2021/11/15 02:50:31;;;;;;;9.55;5.40;;;21.80;52.10;;;;;;5214216;28;20044;-50
2021/11/15 02:53:06;;;;;;;8.68;4.93;;;21.70;52.00;;;;;;5223203;28;20056;-54
2021/11/15 02:55:39;;;;;;;7.43;4.65;;;21.70;52.00;;;;;;5229255;28;20044;-52
2021/11/15 02:58:13;;;;;;;8.85;5.07;;;21.70;52.00;;;;;;5193365;28;20398;-52
2021/11/15 03:01:03;;;;;;;8.52;4.95;;;21.70;52.00;;;;;;5238956;28;20094;-47
2021/11/15 03:03:36;;;;;;;6.57;4.68;;;21.70;52.00;;;;;;5216732;28;20048;-52
2021/11/15 03:06:09;;;;;;;5.68;4.30;;;21.70;51.90;;;;;;5208996;28;20044;-54
2021/11/15 03:08:41;;;;;;;5.75;4.32;;;21.70;52.00;;;;;;5223503;28;20051;-57
2021/11/15 03:11:14;;;;;;;6.00;4.40;;;21.70;52.00;;;;;;5214899;28;20044;-54
2021/11/15 03:13:47;;;;;;;9.10;4.57;;;21.70;52.00;;;;;;5214081;28;21411;-50
2021/11/15 03:16:20;;;;;;;4.68;3.72;;;21.70;51.90;;;;;;5218479;28;20626;-51
2021/11/15 03:18:52;;;;;;;6.80;4.43;;;21.70;52.00;;;;;;5205399;28;20044;-54
2021/11/15 03:21:25;;;;;;;6.40;4.30;;;21.70;51.90;;;;;;5199088;28;20444;-53
2021/11/15 03:23:58;;;;;;;7.45;3.78;;;21.70;51.90;;;;;;5222420;28;20044;-51
2021/11/15 03:26:31;;;;;;;6.15;4.32;;;21.70;51.90;;;;;;5192239;28;20044;-54
2021/11/15 03:29:03;;;;;;;6.88;4.50;;;21.70;52.00;;;;;;5217320;28;20056;-56
2021/11/15 03:31:36;;;;;;;8.10;4.60;;;21.70;51.90;;;;;;5218554;28;20064;-50
2021/11/15 03:34:12;;;;;;;6.93;4.30;;;21.70;51.90;;;;;;5234347;28;20067;-58
2021/11/15 03:36:45;;;;;;;9.20;4.18;;;21.70;51.90;;;;;;5234491;28;20503;-53
2021/11/15 03:39:17;;;;;;;5.70;4.10;;;21.70;51.90;;;;;;5233610;28;20051;-51
2021/11/15 03:41:50;;;;;;;6.78;3.70;;;21.70;51.90;;;;;;5239899;28;20389;-47
2021/11/15 03:44:22;;;;;;;6.07;4.20;;;21.70;52.60;;;;;;5231486;28;20566;-49
2021/11/15 03:46:55;;;;;;;6.68;4.43;;;21.70;52.00;;;;;;5233508;28;20641;-51
2021/11/15 03:49:27;;;;;;;4.95;3.95;;;21.70;51.90;;;;;;5226113;28;20147;-49
2021/11/15 03:52:00;;;;;;;6.85;4.28;;;21.70;51.90;;;;;;5233223;28;20714;-47
2021/11/15 03:54:32;;;;;;;5.32;3.90;;;21.70;52.00;;;;;;5220046;28;20051;-51
2021/11/15 03:57:05;;;;;;;5.85;4.35;;;21.70;51.90;;;;;;5222922;28;20415;-52
2021/11/15 03:59:37;;;;;;;7.20;3.88;;;21.70;52.00;;;;;;5225915;28;20053;-57
2021/11/15 04:02:11;;;;;;;3.90;3.03;;;21.70;52.10;;;;;;5226077;28;20048;-59
2021/11/15 04:04:51;;;;;;;5.05;3.33;;;21.70;52.20;;;;;;5223567;28;20404;-57
2021/11/15 04:07:34;;;;;;;4.75;3.53;;;21.70;52.20;;;;;;5207486;28;20491;-55
2021/11/15 04:10:21;;;;;;;7.85;3.63;;;21.70;52.30;;;;;;5224128;28;20056;-51
2021/11/15 04:12:56;;;;;;;6.43;3.78;;;21.70;52.50;;;;;;5226776;28;20052;-53
2021/11/15 04:15:29;;;;;;;5.05;3.38;;;21.70;52.60;;;;;;5234597;28;20492;-53
2021/11/15 04:18:02;;;;;;;5.53;3.88;;;21.70;52.60;;;;;;5224227;28;20052;-55
2021/11/15 04:20:35;;;;;;;6.63;3.42;;;21.70;52.80;;;;;;5225972;28;20524;-52
2021/11/15 04:23:09;;;;;;;4.80;3.60;;;21.70;52.80;;;;;;5214633;28;20043;-54
2021/11/15 04:25:41;;;;;;;5.97;3.40;;;21.70;52.90;;;;;;5220295;28;20049;-58
2021/11/15 04:28:14;;;;;;;5.88;3.03;;;21.70;53.00;;;;;;5223848;28;20052;-51
2021/11/15 04:30:46;;;;;;;6.63;3.75;;;21.70;53.10;;;;;;5235389;28;20338;-50
2021/11/15 04:33:19;;;;;;;4.22;2.97;;;21.70;53.10;;;;;;5223603;28;20043;-54
2021/11/15 04:35:53;;;;;;;6.28;3.75;;;21.70;53.20;;;;;;5209046;28;20556;-51
2021/11/15 04:38:26;;;;;;;7.25;3.45;;;21.70;53.30;;;;;;5224266;28;20048;-53
2021/11/15 04:40:58;;;;;;;9.48;3.50;;;21.70;53.30;;;;;;5224663;28;20464;-46
2021/11/15 04:43:31;;;;;;;5.43;3.83;;;21.70;53.40;;;;;;5224409;28;20283;-53
2021/11/15 04:46:04;;;;;;;6.15;3.05;;;21.70;53.50;;;;;;5218591;28;20416;-59
2021/11/15 04:48:36;;;;;;;7.90;3.53;;;21.70;53.50;;;;;;5227954;28;20048;-58
2021/11/15 04:51:09;;;;;;;5.20;3.58;;;21.70;53.50;;;;;;5225034;28;21136;-56
2021/11/15 04:54:02;;;;;;;7.00;3.45;;;21.70;53.60;;;;;;5225179;28;20421;-54
2021/11/15 04:56:34;;;;;;;8.05;3.42;;;21.70;53.60;;;;;;5224436;28;20047;-51
2021/11/15 04:59:08;;;;;;;5.38;3.20;;;21.70;53.70;;;;;;5231113;28;20611;-47
2021/11/15 05:01:40;;;;;;;6.70;3.20;;;21.70;53.70;;;;;;5216618;28;20500;-47
2021/11/15 05:04:13;;;;;;;6.88;3.10;;;21.70;53.70;;;;;;5230309;28;20061;-49
2021/11/15 05:06:45;;;;;;;12.43;3.30;;;21.70;53.80;;;;;;5246566;28;20036;-54
2021/11/15 05:09:18;;;;;;;7.38;3.58;;;21.70;53.80;;;;;;5228784;28;20032;-57
2021/11/15 05:12:09;;;;;;;9.45;3.40;;;21.70;53.80;;;;;;5237019;28;20697;-54
2021/11/15 05:14:41;;;;;;;7.78;3.35;;;21.70;54.00;;;;;;5238531;28;20599;-53
2021/11/15 05:17:14;;;;;;;5.50;2.92;;;21.70;53.90;;;;;;5217339;28;20056;-51
2021/11/15 05:19:46;;;;;;;14.43;3.50;;;21.70;53.90;;;;;;5229261;28;20778;-57
2021/11/15 05:22:39;;;;;;;5.25;2.95;;;21.70;53.90;;;;;;5225937;28;20043;-51
2021/11/15 05:25:14;;;;;;;5.13;3.15;;;21.70;54.00;;;;;;5233094;28;20051;-56
2021/11/15 05:27:48;;;;;;;6.22;3.28;;;21.70;54.00;;;;;;5221287;28;20052;-50
2021/11/15 05:30:21;;;;;;;7.47;3.20;;;21.70;54.00;;;;;;5221641;28;20044;-53
2021/11/15 05:32:55;;;;;;;5.18;3.15;;;21.70;54.00;;;;;;5222255;28;20060;-53
2021/11/15 05:35:28;;;;;;;5.95;3.08;;;21.70;54.00;;;;;;5230189;28;20043;-56
2021/11/15 05:38:01;;;;;;;4.13;2.83;;;21.70;54.00;;;;;;5210092;28;20044;-58
2021/11/15 05:40:34;;;;;;;4.57;3.13;;;21.80;54.80;;;;;;5234369;28;20057;-55
2021/11/15 05:43:07;;;;;;;5.20;2.72;;;21.80;54.20;;;;;;5238872;28;20055;-57
2021/11/15 05:45:39;;;;;;;8.57;3.22;;;21.80;54.20;;;;;;5216243;28;20040;-51
2021/11/15 05:48:12;;;;;;;6.95;2.97;;;21.80;54.30;;;;;;5232718;28;20053;-52
2021/11/15 05:50:46;;;;;;;6.97;3.05;;;21.80;54.10;;;;;;5225714;28;20051;-59
2021/11/15 05:53:18;;;;;;;;;;;21.80;54.10;;;;;;5227040;28;20051;-51
2021/11/15 05:55:51;;;;;;;5.57;3.08;;;21.80;54.10;;;;;;5230519;28;20239;-54
2021/11/15 05:58:23;;;;;;;6.68;3.05;;;21.80;54.10;;;;;;5236937;28;20036;-53
2021/11/15 06:00:56;;;;;;;12.93;3.08;;;21.90;54.20;;;;;;5226390;28;25860;-54
2021/11/15 06:03:29;;;;;;;;;;;21.90;54.20;;;;;;5237174;28;20603;-56
2021/11/15 06:06:02;;;;;;;10.35;3.00;;;21.90;54.30;;;;;;5231068;28;20449;-56
2021/11/15 06:08:34;;;;;;;8.75;3.67;;;21.90;54.30;;;;;;5234713;28;20588;-56
2021/11/15 06:11:07;;;;;;;22.95;3.20;;;21.90;54.20;;;;;;5205971;28;20052;-49
2021/11/15 06:13:39;;;;;;;15.77;3.70;;;21.90;54.30;;;;;;5228418;28;20056;-58
2021/11/15 06:16:12;;;;;;;16.88;3.30;;;22.00;54.60;;;;;;5210518;28;20056;-52
2021/11/15 06:18:44;;;;;;;27.27;4.00;;;22.00;54.60;;;;;;5239813;28;20044;-52
2021/11/15 06:21:17;;;;;;;16.30;3.42;;;22.00;54.50;;;;;;5241626;28;20040;-54
2021/11/15 06:23:50;;;;;;;13.98;3.20;;;22.00;54.40;;;;;;5237880;28;20409;-57
2021/11/15 06:26:22;;;;;;;9.07;3.60;;;22.10;54.30;;;;;;5242816;28;20507;-55
2021/11/15 06:28:55;;;;;;;10.52;3.15;;;22.10;54.30;;;;;;5242287;28;20052;-56
2021/11/15 06:31:28;;;;;;;10.95;3.30;;;22.10;54.20;;;;;;5226032;28;20677;-53
2021/11/15 06:34:00;;;;;;;10.45;3.13;;;22.10;54.20;;;;;;5244058;28;20056;-54
2021/11/15 06:36:33;;;;;;;9.67;3.13;;;22.10;54.10;;;;;;5226189;28;20413;-50
2021/11/15 06:39:06;;;;;;;10.70;2.70;;;22.10;54.10;;;;;;5244898;28;20054;-57
2021/11/15 06:41:38;;;;;;;5.28;3.13;;;22.10;54.10;;;;;;5244313;28;20044;-59
2021/11/15 06:44:11;;;;;;;7.43;3.08;;;22.10;54.10;;;;;;5242852;28;20044;-50
2021/11/15 06:46:43;;;;;;;7.43;2.90;;;22.10;54.10;;;;;;5239815;28;20511;-54
2021/11/15 06:49:16;;;;;;;15.50;3.15;;;22.10;54.00;;;;;;5233990;28;20051;-54
2021/11/15 06:51:48;;;;;;;5.43;3.17;;;22.10;54.10;;;;;;5243997;28;20063;-61
2021/11/15 06:54:21;;;;;;;5.95;2.55;;;22.10;54.70;;;;;;5237926;28;20040;-55
2021/11/15 06:56:54;;;;;;;9.43;3.13;;;22.10;54.10;;;;;;5240687;28;20055;-55
2021/11/15 06:59:27;;;;;;;8.27;3.08;;;22.20;54.10;;;;;;5237288;28;20052;-50
2021/11/15 07:01:59;;;;;;;4.85;3.13;;;22.20;54.10;;;;;;5237372;28;20059;-54
2021/11/15 07:04:32;;;;;;;7.10;2.47;;;22.20;54.00;;;;;;5242009;28;21315;-63
2021/11/15 07:07:04;;;;;;;5.10;2.60;;;22.20;54.00;;;;;;5241442;28;20063;-54
2021/11/15 07:09:37;;;;;;;7.07;3.00;;;22.20;54.00;;;;;;5240553;28;20165;-54
2021/11/15 07:12:09;;;;;;;5.28;2.45;;;22.20;54.00;;;;;;5244784;28;20051;-57
2021/11/15 07:14:42;;;;;;;5.07;2.53;;;22.20;53.90;;;;;;5245048;28;20040;-61
2021/11/15 07:17:14;;;;;;;5.17;2.70;;;22.20;53.90;;;;;;5248112;28;20055;-51
2021/11/15 07:19:47;;;;;;;7.35;2.53;;;22.20;54.60;;;;;;5245430;28;20044;-60
2021/11/15 07:22:34;;;;;;;4.90;2.47;;;22.20;53.90;;;;;;5243129;28;20039;-61
2021/11/15 07:25:08;;;;;;;4.40;2.45;;;22.10;53.80;;;;;;5238744;28;20053;-51
2021/11/15 07:27:40;;;;;;;4.45;2.45;;;22.20;53.90;;;;;;5230455;28;20051;-50
2021/11/15 07:30:13;;;;;;;4.47;2.38;;;22.20;53.90;;;;;;5223504;28;20044;-51
2021/11/15 07:32:46;;;;;;;6.57;2.10;;;22.20;53.90;;;;;;5231847;28;20044;-56
2021/11/15 07:35:20;;;;;;;7.18;2.58;;;22.20;53.90;;;;;;5257278;28;20048;-53
2021/11/15 07:37:52;;;;;;;;;;;22.20;53.80;;;;;;5254380;28;20055;-57
2021/11/15 07:40:25;;;;;;;7.25;2.38;;;22.20;53.90;;;;;;5254220;28;19924;-57
2021/11/15 07:42:57;;;;;;;4.70;2.58;;;22.20;53.90;;;;;;5254975;28;20044;-53
2021/11/15 07:45:30;;;;;;;3.90;2.22;;;22.20;53.90;;;;;;5253675;28;20508;-52
2021/11/15 07:48:03;;;;;;;2.67;2.10;;;22.20;53.90;;;;;;5251520;28;20076;-57
2021/11/15 07:50:36;;;;;;;5.00;2.83;;;22.20;53.80;;;;;;5253389;28;20063;-51
2021/11/15 07:53:09;;;;;;;4.60;2.60;;;22.20;53.80;;;;;;5251925;28;20055;-55
2021/11/15 07:55:42;;;;;;;6.18;2.72;;;22.20;53.80;;;;;;5251392;28;20527;-55
2021/11/15 07:58:15;;;;;;;4.03;2.33;;;22.20;53.80;;;;;;5252817;28;20516;-49
2021/11/15 08:00:49;;;;;;;4.28;2.25;;;22.20;53.70;;;;;;5252866;28;20048;-56
2021/11/15 08:03:21;;;;;;;4.70;2.50;;;22.20;53.70;;;;;;5254288;28;20055;-53
2021/11/15 08:05:54;;;;;;;3.33;1.90;;;22.20;53.70;;;;;;5254394;28;20043;-55
2021/11/15 08:08:26;;;;;;;6.68;3.13;;;22.20;53.70;;;;;;5256663;28;20040;-51
2021/11/15 08:11:00;;;;;;;3.75;2.20;;;22.20;53.70;;;;;;5256503;28;20044;-55
2021/11/15 08:13:33;;;;;;;3.85;2.45;;;22.20;53.70;;;;;;5257016;28;20063;-53
2021/11/15 08:16:05;;;;;;;4.87;2.63;;;22.20;53.70;;;;;;5253606;28;20056;-55
2021/11/15 08:18:40;;;;;;;4.50;2.47;;;22.20;53.70;;;;;;5246562;28;20056;-54
2021/11/15 08:21:13;;;;;;;4.70;2.42;;;22.20;53.70;;;;;;5253010;28;20615;-58
2021/11/15 08:23:48;;;;;;;3.45;2.08;;;22.20;53.70;;;;;;5257270;28;20067;-54
2021/11/15 08:26:26;;;;;;;3.30;2.05;;;22.20;53.60;;;;;;5236540;28;20063;-55
2021/11/15 08:29:20;;;;;;;8.15;2.13;;;22.20;53.60;;;;;;5255531;28;20503;-48
2021/11/15 08:31:55;;;;;;;4.18;2.50;;;22.20;53.70;;;;;;5252815;28;20063;-52
2021/11/15 08:34:28;;;;;;;4.85;2.35;;;22.30;53.70;;;;;;5252617;28;20048;-53
2021/11/15 08:37:02;;;;;;;3.77;2.20;;;22.20;53.60;;;;;;5236602;28;20054;-52
2021/11/15 08:39:34;;;;;;;;;;;22.30;53.70;;;;;;5255727;28;20302;-55
2021/11/15 08:42:09;;;;;;;2.60;2.20;;;22.20;53.60;;;;;;5255615;28;19924;-50
2021/11/15 08:44:46;;;;;;;5.03;2.10;;;22.20;53.70;;;;;;5257522;28;20059;-54
2021/11/15 08:47:18;;;;;;;2.78;2.03;;;22.20;53.70;;;;;;5249440;28;20656;-56
2021/11/15 08:49:51;;;;;;;3.05;2.25;;;22.20;53.60;;;;;;5252289;28;20059;-55
2021/11/15 08:52:23;;;;;;;5.13;2.80;;;22.30;53.70;;;;;;5252101;28;20074;-54
2021/11/15 08:54:58;;;;;;;4.95;2.45;;;22.20;53.60;;;;;;5212091;28;20607;-52
2021/11/15 08:57:30;;;;;;;2.40;1.83;;;22.30;53.70;;;;;;5232353;28;20044;-55
2021/11/15 09:00:04;;;;;;;2.92;1.98;;;22.30;53.60;;;;;;5252080;28;20047;-56
2021/11/15 09:02:37;;;;;;;3.35;1.85;;;22.30;53.60;;;;;;5251890;28;20055;-52
2021/11/15 09:05:09;;;;;;;3.57;2.27;;;22.30;53.60;;;;;;5250817;28;20059;-54
2021/11/15 09:07:43;;;;;;;3.28;2.17;;;22.30;53.60;;;;;;5249281;28;20297;-54
2021/11/15 09:10:17;;;;;;;3.42;2.17;;;22.30;53.60;;;;;;5250316;28;20487;-51
2021/11/15 09:12:49;;;;;;;2.70;2.10;;;22.30;53.60;;;;;;5225658;28;20044;-55
2021/11/15 09:15:22;;;;;;;2.53;1.70;;;22.30;53.60;;;;;;5247407;28;20036;-55
2021/11/15 09:17:54;;;;;;;2.65;1.92;;;22.20;54.20;;;;;;5247494;28;20055;-57
2021/11/15 09:20:27;;;;;;;3.37;2.10;;;22.30;53.60;;;;;;5216544;28;20044;-53
2021/11/15 09:23:00;;;;;;;3.25;1.95;;;22.30;53.60;;;;;;5231677;28;20289;-53
2021/11/15 09:25:33;;;;;;;;;;;22.30;53.60;;;;;;5252219;28;20075;-60
2021/11/15 09:28:06;;;;;;;2.00;1.60;;;22.20;53.60;;;;;;5249589;28;20118;-54
2021/11/15 09:30:42;;;;;;;3.20;2.00;;;22.20;53.60;;;;;;5250083;28;20048;-56
2021/11/15 09:33:14;;;;;;;3.03;1.83;;;22.30;54.30;;;;;;5230933;28;20047;-54
2021/11/15 09:35:50;;;;;;;2.22;1.70;;;22.30;53.60;;;;;;5233787;28;20142;-57
2021/11/15 09:38:23;;;;;;;4.43;1.92;;;22.30;53.60;;;;;;5249592;28;20051;-54
2021/11/15 09:40:58;;;;;;;;;;;22.30;53.60;;;;;;5247491;28;20579;-56
2021/11/15 09:43:34;;;;;;;3.08;1.90;;;22.20;53.50;;;;;;5231075;28;20311;-52
2021/11/15 09:46:08;;;;;;;2.75;1.70;;;22.30;53.70;;;;;;5251830;28;20052;-53
2021/11/15 09:48:47;;;;;;;3.65;1.75;;;22.30;53.60;;;;;;5252281;28;20052;-53
2021/11/15 09:51:20;;;;;;;2.47;2.03;;;22.30;53.60;;;;;;5248450;28;20047;-55
2021/11/15 09:53:53;;;;;;;2.53;1.98;;;22.30;53.60;;;;;;5252546;28;20044;-53
2021/11/15 09:56:26;;;;;;;2.28;1.83;;;22.30;53.60;;;;;;5251358;28;20078;-52
2021/11/15 09:58:59;;;;;;;2.63;1.63;;;22.30;53.50;;;;;;5251154;28;20044;-53
2021/11/15 10:01:32;;;;;;;2.60;1.98;;;22.30;53.60;;;;;;5250526;28;20044;-57
2021/11/15 10:04:05;;;;;;;2.35;1.70;;;22.30;53.50;;;;;;5250843;28;20055;-54
2021/11/15 10:06:37;;;;;;;2.40;1.60;;;22.30;53.60;;;;;;5248803;28;20054;-52
2021/11/15 10:09:10;;;;;;;2.23;1.60;;;22.30;53.50;;;;;;5249409;28;20060;-56
2021/11/15 10:11:49;;;;;;;4.28;1.85;;;22.30;53.50;;;;;;5250711;28;20297;-58
2021/11/15 10:14:21;;;;;;;2.17;1.98;;;22.30;53.50;;;;;;5251253;28;20051;-54
2021/11/15 10:17:00;;;;;;;2.43;1.57;;;22.30;53.50;;;;;;5249258;28;20045;-56
2021/11/15 10:19:33;;;;;;;3.63;2.22;;;22.30;53.50;;;;;;5249486;28;20052;-51
2021/11/15 10:22:06;;;;;;;3.50;2.03;;;22.30;53.60;;;;;;5228992;28;20044;-55
2021/11/15 10:24:41;;;;;;;2.00;1.80;;;22.30;53.50;;;;;;5253589;28;20393;-52
2021/11/15 10:27:24;;;;;;;2.55;1.80;;;22.30;53.50;;;;;;5232413;28;20043;-51
2021/11/15 10:29:56;;;;;;;3.88;2.00;;;22.30;53.50;;;;;;5250950;28;20044;-54
2021/11/15 10:32:29;;;;;;;2.10;1.80;;;22.30;53.50;;;;;;5249350;28;20059;-58
2021/11/15 10:35:03;;;;;;;2.50;1.60;;;22.30;53.50;;;;;;5248198;28;20047;-53
2021/11/15 10:37:37;;;;;;;;;;;22.30;53.50;;;;;;5247568;28;20047;-61
2021/11/15 10:40:12;;;;;;;;;;;22.30;53.50;;;;;;5250094;28;19927;-57
2021/11/15 10:42:50;;;;;;;3.40;1.60;;;22.30;53.60;;;;;;5249177;28;19924;-55
2021/11/15 10:45:25;;;;;;;2.28;1.80;;;22.30;53.60;;;;;;5251137;28;20557;-57
2021/11/15 10:48:01;;;;;;;3.00;1.88;;;22.30;53.50;;;;;;5247596;28;20048;-52
2021/11/15 10:50:48;;;;;;;2.05;1.65;;;22.30;53.50;;;;;;5248323;28;20407;-59
2021/11/15 10:53:55;;;;;;;2.10;1.80;;;22.30;53.50;;;;;;5249722;28;20048;-52
2021/11/15 10:56:41;;;;;;;2.33;1.92;;;22.30;53.50;;;;;;5244194;28;20048;-55
2021/11/15 10:59:14;;;;;;;;;;;22.30;53.50;;;;;;5237091;28;20531;-52
2021/11/15 11:01:47;;;;;;;1.95;1.85;;;22.30;53.50;;;;;;5237195;28;20006;-58
2021/11/15 11:04:24;;;;;;;2.20;1.77;;;22.30;53.50;;;;;;5235643;28;20367;-57
2021/11/15 11:07:03;;;;;;;3.83;1.80;;;22.30;54.10;;;;;;5202230;28;20056;-57
2021/11/15 11:09:38;;;;;;;2.75;1.77;;;22.30;54.10;;;;;;5211816;28;20043;-56
2021/11/15 11:12:24;;;;;;;2.30;1.85;;;22.30;53.50;;;;;;5237247;28;20467;-52
2021/11/15 11:15:18;;;;;;;3.50;1.88;;;22.40;53.40;;;;;;5218713;28;20047;-56
2021/11/15 11:17:59;;;;;;;6.53;1.67;;;22.40;53.40;;;;;;5236596;28;20542;-53
2021/11/15 11:26:21;;;;;;;2.65;1.90;;;22.40;53.40;;;;;;5237961;28;20047;-57
2021/11/15 11:28:59;;;;;;;2.10;1.85;;;22.40;53.30;;;;;;5237241;28;20571;-56
2021/11/15 11:31:34;;;;;;;2.30;1.80;;;22.40;53.30;;;;;;5236038;28;20044;-63
2021/11/15 11:34:06;;;;;;;2.05;1.50;;;22.50;53.30;;;;;;5214772;28;20073;-57
2021/11/15 11:36:39;;;;;;;2.42;1.85;;;22.50;53.20;;;;;;5216658;28;20044;-54
2021/11/15 11:39:12;;;;;;;3.05;2.00;;;22.50;53.20;;;;;;5219319;28;20051;-56
2021/11/15 11:41:53;;;;;;;1.98;1.77;;;22.50;53.20;;;;;;5235586;28;20044;-57
2021/11/15 11:44:28;;;;;;;1.83;1.60;;;22.50;53.80;;;;;;5233103;28;20580;-57
2021/11/15 11:47:04;;;;;;;2.72;2.10;;;22.50;53.10;;;;;;5235021;28;20044;-55
2021/11/15 11:49:39;;;;;;;2.28;1.90;;;22.50;53.00;;;;;;5235415;28;20040;-60
2021/11/15 11:52:13;;;;;;;2.08;1.50;;;22.60;53.10;;;;;;5234252;28;20044;-58
2021/11/15 11:54:48;;;;;;;1.95;1.75;;;22.60;53.70;;;;;;5241657;28;20040;-54
2021/11/15 11:57:30;;;;;;;1.88;1.50;;;22.60;53.00;;;;;;5218227;28;20044;-59
2021/11/15 12:00:08;;;;;;;2.10;1.52;;;22.60;53.00;;;;;;5237334;28;20055;-57
2021/11/15 12:02:45;;;;;;;1.73;1.63;;;22.60;53.00;;;;;;5234838;28;20047;-55
2021/11/15 12:05:29;;;;;;;1.88;1.60;;;22.60;53.00;;;;;;5238561;28;20562;-55
2021/11/15 12:08:04;;;;;;;2.47;1.55;;;22.60;52.90;;;;;;5238638;28;20700;-52
2021/11/15 12:10:56;;;;;;;1.73;1.60;;;22.60;52.90;;;;;;5239102;28;20523;-56
2021/11/15 12:13:31;;;;;;;2.30;1.88;;;22.60;52.90;;;;;;5237592;28;20412;-56
2021/11/15 12:16:06;;;;;;;4.45;1.90;;;22.60;52.90;;;;;;5210430;28;20619;-59
2021/11/15 12:18:58;;;;;;;2.05;1.83;;;22.70;53.00;;;;;;5235043;28;20059;-60
2021/11/15 12:21:38;;;;;;;2.35;1.65;;;22.60;52.80;;;;;;5225036;28;20052;-55
2021/11/15 12:24:16;;;;;;;2.58;1.73;;;22.60;52.80;;;;;;5239411;28;20718;-59
2021/11/15 12:26:50;;;;;;;2.58;1.73;;;22.60;52.90;;;;;;5237951;28;20060;-55
2021/11/15 12:29:32;;;;;;;2.55;1.83;;;22.60;52.80;;;;;;5226047;28;20063;-51
2021/11/15 12:32:12;;;;;;;4.93;1.50;;;22.60;52.80;;;;;;5204689;28;20048;-54
2021/11/15 12:34:58;;;;;;;2.38;1.73;;;22.60;52.80;;;;;;5213725;28;20044;-59
2021/11/15 12:37:36;;;;;;;1.67;1.55;;;22.60;52.80;;;;;;5232090;28;20040;-55
2021/11/15 12:40:30;;;;;;;3.03;1.75;;;22.70;52.90;;;;;;5223340;28;20052;-60
2021/11/15 12:43:19;;;;;;;6.97;1.95;;;22.70;52.90;;;;;;5212054;28;20071;-56
2021/11/15 12:46:10;;;;;;;1.95;1.75;;;22.70;52.80;;;;;;5226803;28;20044;-57
2021/11/15 12:48:48;;;;;;;2.38;1.88;;;22.70;52.90;;;;;;5221951;28;20040;-60
2021/11/15 12:51:24;;;;;;;2.75;1.70;;;22.70;52.90;;;;;;5203013;28;20044;-55
2021/11/15 12:53:56;;;;;;;3.42;1.75;;;22.70;52.90;;;;;;5212210;28;20549;-61
2021/11/15 12:56:38;;;;;;;2.25;1.55;;;22.70;53.00;;;;;;5200028;28;20040;-58
2021/11/15 12:59:11;;;;;;;5.68;1.80;;;22.70;52.90;;;;;;5206799;28;20040;-63
2021/11/15 13:01:45;;;;;;;2.97;2.13;;;22.70;53.00;;;;;;5192216;28;20308;-56
2021/11/15 13:04:18;;;;;;;2.00;1.63;;;22.70;52.90;;;;;;5217883;28;20048;-62
2021/11/15 13:06:51;;;;;;;1.80;1.60;;;22.70;53.00;;;;;;5219662;28;20051;-61
2021/11/15 13:09:24;;;;;;;4.40;1.60;;;22.70;53.00;;;;;;5206689;28;20981;-54
2021/11/15 13:11:57;;;;;;;4.20;1.80;;;22.70;53.10;;;;;;5226266;28;20048;-56
2021/11/15 13:14:31;;;;;;;3.78;1.83;;;22.70;53.10;;;;;;5214106;28;20048;-60
2021/11/15 13:17:04;;;;;;;2.25;1.77;;;22.70;53.10;;;;;;5222493;28;20463;-59
2021/11/15 13:19:37;;;;;;;3.45;1.45;;;22.70;53.10;;;;;;5216035;28;20416;-62
2021/11/15 13:22:10;;;;;;;3.67;1.75;;;22.70;53.10;;;;;;5214272;28;27072;-59
2021/11/15 13:24:45;;;;;;;2.15;1.77;;;22.70;53.10;;;;;;5218589;28;20051;-59
2021/11/15 13:27:19;;;;;;;2.90;1.60;;;22.70;53.00;;;;;;5204809;28;20049;-62
2021/11/15 13:29:55;;;;;;;3.08;1.80;;;22.70;53.00;;;;;;5212769;28;20052;-59
2021/11/15 13:32:28;;;;;;;4.90;1.90;;;22.70;53.00;;;;;;5213363;28;20273;-58